Pagrindinis puslapis
METAR-TAF:

METAR-TAF

Oro uostai :

Naftos platforma

F3-fb-1, Nyderlandai

platuma: 54-51-14N, ilguma: 4-41-36E, Aukštis: 33 m

Dabartinis oras

Ataskaita buvo paskelbta 20 minutes, ne 21:55 UTC
Vėjas 19 kt iš Pietų/Pietvakarių
Temperatūra 13°C
Drėgmė 88%
Slėgis 1004 hPa
Matomumas 10 km arba daugiau

METAR: EHFD 162155Z AUTO 20019KT 9999 NSC 13/11 Q1004

Laikas: 00:15 (22:15 UTC)


TAF: trūkstamas

Orai ataskaitas ir orų prognozės (METAR, TAF).

turimą stotys yra geltonos ir raudonos taškus žemėlapyje.

Perkelti pele per norėdami pamatyti stoties vardą.

Tada spustelėkite, norėdami matyti oro stebėjimo ir prognozės.

Norėdami pakeisti žemėlapį: spustelėkite ant žalios mygtukų su juodo kryžiaus žemyn,; žalią mygtuką su brūkšneliu, jei norite nutolinti; arba žalių rodyklių gretimoms žemėlapius.


METAR-TAF: